createdAt,value
2022-10-18T00:00:20.385Z,16.73
2022-10-18T00:02:47.358Z,16.55
2022-10-18T00:05:14.338Z,15.13
2022-10-18T00:07:41.261Z,14.98
2022-10-18T00:10:08.959Z,15.23
2022-10-18T00:12:37.843Z,15.52
2022-10-18T00:15:07.083Z,16.83
2022-10-18T00:17:38.700Z,15.05
2022-10-18T00:20:07.027Z,16.02
2022-10-18T00:22:39.132Z,15.73
2022-10-18T00:25:08.245Z,16.20
2022-10-18T00:27:35.379Z,16.13
2022-10-18T00:30:02.623Z,14.65
2022-10-18T00:32:29.856Z,16.15
2022-10-18T00:34:56.914Z,16.23
2022-10-18T00:37:23.869Z,14.52
2022-10-18T00:42:27.037Z,14.02
2022-10-18T00:45:04.200Z,12.60
2022-10-18T00:47:31.950Z,11.63
2022-10-18T00:50:04.618Z,12.50
2022-10-18T00:52:42.888Z,11.68
2022-10-18T00:55:10.636Z,13.73
2022-10-18T00:57:40.839Z,11.35
2022-10-18T01:00:10.166Z,11.55
2022-10-18T01:02:42.625Z,12.45
2022-10-18T01:05:12.050Z,12.75
2022-10-18T01:07:58.458Z,13.55
2022-10-18T01:10:43.834Z,13.30
2022-10-18T01:13:35.249Z,10.60
2022-10-18T01:16:10.822Z,11.65
2022-10-18T01:18:48.958Z,11.10
2022-10-18T01:21:43.070Z,10.30
2022-10-18T01:24:36.968Z,9.90
2022-10-18T01:27:31.911Z,9.57
2022-10-18T01:30:22.047Z,10.20
2022-10-18T01:32:55.224Z,10.50
2022-10-18T01:35:31.933Z,10.50
2022-10-18T01:38:04.557Z,10.00
2022-10-18T01:40:35.368Z,10.82
2022-10-18T01:43:03.748Z,11.02
2022-10-18T01:45:33.222Z,11.45
2022-10-18T01:48:02.127Z,10.32
2022-10-18T01:50:34.892Z,9.77
2022-10-18T01:53:02.303Z,9.15
2022-10-18T01:55:40.914Z,10.55
2022-10-18T01:58:28.769Z,10.73
2022-10-18T02:01:06.100Z,11.32
2022-10-18T02:03:39.795Z,11.10
2022-10-18T02:06:30.504Z,10.40
2022-10-18T02:09:05.095Z,10.55
2022-10-18T02:11:34.821Z,10.55
2022-10-18T02:14:08.057Z,10.40
2022-10-18T02:16:46.825Z,10.52
2022-10-18T02:19:31.577Z,10.82
2022-10-18T02:21:59.533Z,11.30
2022-10-18T02:24:34.642Z,10.52
2022-10-18T02:27:02.399Z,11.40
2022-10-18T02:29:30.956Z,10.48
2022-10-18T02:32:41.541Z,10.07
2022-10-18T02:35:18.719Z,11.45
2022-10-18T02:37:48.852Z,11.75
2022-10-18T02:40:16.806Z,11.32
2022-10-18T02:42:53.774Z,11.02
2022-10-18T02:45:21.267Z,10.65
2022-10-18T02:47:48.289Z,10.95
2022-10-18T02:50:15.431Z,10.07
2022-10-18T02:52:42.369Z,10.75
2022-10-18T02:55:10.469Z,10.95
2022-10-18T02:57:37.991Z,10.98
2022-10-18T03:00:06.303Z,11.15
2022-10-18T03:02:33.295Z,10.45
2022-10-18T03:05:00.243Z,10.43
2022-10-18T03:07:27.500Z,10.10
2022-10-18T03:09:54.420Z,10.38
2022-10-18T03:12:21.348Z,10.73
2022-10-18T03:14:48.271Z,10.15
2022-10-18T03:17:15.255Z,10.10
2022-10-18T03:19:42.231Z,10.55
2022-10-18T03:22:09.261Z,9.43
2022-10-18T03:24:36.163Z,9.27
2022-10-18T03:27:03.256Z,10.13
2022-10-18T03:29:30.254Z,10.13
2022-10-18T03:31:57.160Z,10.25
2022-10-18T03:34:24.118Z,11.18
2022-10-18T03:36:51.132Z,10.77
2022-10-18T03:39:18.083Z,10.00
2022-10-18T03:41:44.985Z,11.27
2022-10-18T03:44:11.937Z,10.50
2022-10-18T03:46:38.831Z,10.60
2022-10-18T03:49:06.175Z,11.30
2022-10-18T03:51:33.384Z,10.80
2022-10-18T03:54:00.358Z,9.38
2022-10-18T03:56:27.985Z,9.60
2022-10-18T03:58:54.847Z,9.60
2022-10-18T04:01:22.563Z,9.23
2022-10-18T04:03:50.006Z,9.00
2022-10-18T04:06:17.198Z,9.95
2022-10-18T04:08:44.042Z,10.85
2022-10-18T04:11:12.496Z,10.15
2022-10-18T04:13:39.505Z,9.65
2022-10-18T04:16:07.163Z,10.00
2022-10-18T04:18:34.282Z,9.43
2022-10-18T04:21:01.447Z,10.35
2022-10-18T04:23:28.314Z,10.10
2022-10-18T04:25:55.905Z,10.73
2022-10-18T04:28:22.773Z,10.35
2022-10-18T04:30:51.512Z,9.93
2022-10-18T04:33:19.744Z,11.00
2022-10-18T04:35:47.178Z,10.60
2022-10-18T04:38:14.866Z,10.65
2022-10-18T04:40:42.387Z,10.63
2022-10-18T04:43:12.107Z,10.25
2022-10-18T04:45:39.821Z,11.13
2022-10-18T04:48:07.089Z,10.68
2022-10-18T04:50:34.047Z,11.27
2022-10-18T04:53:01.013Z,10.18
2022-10-18T04:55:27.948Z,11.13
2022-10-18T04:57:54.899Z,12.10
2022-10-18T05:00:21.862Z,11.65
2022-10-18T05:02:48.811Z,10.38
2022-10-18T05:05:15.889Z,11.20
2022-10-18T05:07:42.912Z,11.43
2022-10-18T05:10:10.297Z,11.25
2022-10-18T05:12:37.207Z,11.32
2022-10-18T05:15:04.604Z,11.60
2022-10-18T05:17:31.827Z,13.65
2022-10-18T05:19:58.731Z,12.13
2022-10-18T05:22:25.781Z,12.60
2022-10-18T05:24:52.691Z,13.23
2022-10-18T05:27:19.944Z,12.80
2022-10-18T05:29:46.944Z,13.93
2022-10-18T05:32:13.907Z,12.23
2022-10-18T05:34:40.875Z,13.45
2022-10-18T05:37:07.967Z,13.57
2022-10-18T05:39:34.929Z,13.75
2022-10-18T05:42:02.533Z,13.57
2022-10-18T05:44:29.581Z,13.68
2022-10-18T05:46:56.638Z,13.57
2022-10-18T05:49:23.633Z,15.48
2022-10-18T05:51:50.589Z,14.88
2022-10-18T05:54:17.747Z,15.15
2022-10-18T05:56:44.817Z,14.63
2022-10-18T05:59:12.460Z,14.18
2022-10-18T06:01:40.623Z,15.30
2022-10-18T06:04:08.432Z,14.70
2022-10-18T06:06:35.375Z,14.65
2022-10-18T06:09:07.221Z,14.43
2022-10-18T06:11:35.850Z,15.25
2022-10-18T06:14:03.015Z,15.77
2022-10-18T06:16:32.659Z,44.45
2022-10-18T06:19:00.202Z,29.20
2022-10-18T06:21:27.859Z,27.08
2022-10-18T06:23:58.512Z,28.70
2022-10-18T06:26:28.143Z,16.45
2022-10-18T06:28:55.155Z,18.08
2022-10-18T06:31:24.422Z,17.20
2022-10-18T06:33:51.420Z,17.83
2022-10-18T06:36:24.012Z,18.40
2022-10-18T06:38:52.442Z,17.58
2022-10-18T06:41:19.809Z,17.65
2022-10-18T06:43:51.348Z,18.73
2022-10-18T06:46:18.628Z,18.75
2022-10-18T06:48:46.113Z,19.65
2022-10-18T06:51:13.156Z,18.85
2022-10-18T06:53:44.589Z,17.88
2022-10-18T06:56:25.936Z,18.92
2022-10-18T06:58:52.959Z,19.52
2022-10-18T07:01:20.909Z,18.65
2022-10-18T07:03:49.272Z,18.20
2022-10-18T07:06:18.627Z,18.92
2022-10-18T07:08:47.337Z,21.27
2022-10-18T07:11:18.016Z,21.35
2022-10-18T07:13:45.479Z,20.13
2022-10-18T07:16:17.464Z,19.75
2022-10-18T07:18:49.909Z,19.98
2022-10-18T07:21:19.885Z,21.52
2022-10-18T07:23:47.387Z,21.55
2022-10-18T07:26:23.361Z,20.33
2022-10-18T07:28:55.493Z,21.05
2022-10-18T07:31:23.481Z,21.40
2022-10-18T07:33:50.918Z,20.55
2022-10-18T07:36:18.787Z,20.85
2022-10-18T07:38:45.682Z,21.23
2022-10-18T07:41:14.478Z,21.70
2022-10-18T07:43:47.113Z,22.83
2022-10-18T07:46:16.471Z,22.63
2022-10-18T07:48:43.460Z,22.05
2022-10-18T07:51:11.554Z,22.60
2022-10-18T07:53:39.419Z,20.60
2022-10-18T07:56:19.223Z,22.17
2022-10-18T07:58:52.905Z,21.52
2022-10-18T08:01:22.468Z,22.60
2022-10-18T08:03:50.092Z,23.90
2022-10-18T08:06:18.870Z,21.83
2022-10-18T08:08:46.410Z,21.23
2022-10-18T08:11:16.580Z,22.70
2022-10-18T08:13:44.343Z,23.13
2022-10-18T08:16:14.613Z,21.00
2022-10-18T08:18:42.235Z,21.08
2022-10-18T08:21:11.698Z,22.85
2022-10-18T08:23:39.590Z,22.70
2022-10-18T08:26:12.523Z,22.27
2022-10-18T08:28:49.113Z,25.30
2022-10-18T08:31:21.285Z,28.48
2022-10-18T08:33:48.287Z,26.90
2022-10-18T08:36:17.027Z,31.23
2022-10-18T08:38:44.530Z,40.28
2022-10-18T08:41:41.608Z,39.97
2022-10-18T08:44:20.572Z,38.60
2022-10-18T08:47:03.129Z,41.28
2022-10-18T08:49:38.343Z,39.83
2022-10-18T08:52:18.637Z,38.15
2022-10-18T08:55:02.219Z,38.65
2022-10-18T08:57:31.705Z,39.17
2022-10-18T08:59:59.313Z,38.90
2022-10-18T09:02:35.574Z,35.60
2022-10-18T09:05:22.811Z,36.35
2022-10-18T09:07:59.296Z,32.30
2022-10-18T09:10:36.776Z,30.17
2022-10-18T09:13:31.552Z,30.90
2022-10-18T09:16:05.022Z,29.80
2022-10-18T09:18:44.484Z,28.05
2022-10-18T09:21:24.498Z,25.48
2022-10-18T09:24:05.031Z,25.27
2022-10-18T09:26:44.244Z,26.65
2022-10-18T09:29:23.557Z,23.85
2022-10-18T09:31:50.530Z,22.60
2022-10-18T09:34:40.166Z,26.98
2022-10-18T09:37:13.882Z,31.73
2022-10-18T09:39:41.714Z,31.65
2022-10-18T09:42:35.259Z,27.85
2022-10-18T09:45:16.017Z,27.10
2022-10-18T09:48:08.618Z,25.77
2022-10-18T09:50:58.232Z,24.60
2022-10-18T09:53:33.956Z,24.23
2022-10-18T09:56:04.018Z,23.35
2022-10-18T09:58:51.585Z,19.75
2022-10-18T10:03:49.201Z,15.68
2022-10-18T10:06:32.094Z,16.55
2022-10-18T10:09:15.783Z,12.80
2022-10-18T10:11:51.165Z,12.20
2022-10-18T10:14:26.037Z,11.48
2022-10-18T10:16:56.570Z,8.95
2022-10-18T10:19:30.732Z,12.07
2022-10-18T10:22:09.715Z,12.98
2022-10-18T10:24:49.678Z,12.50
2022-10-18T10:27:21.439Z,13.90
2022-10-18T10:29:56.039Z,11.05
2022-10-18T10:34:55.569Z,15.73
2022-10-18T10:37:27.756Z,13.57
2022-10-18T10:40:19.216Z,12.88
2022-10-18T10:43:25.005Z,10.55
2022-10-18T10:46:05.728Z,9.07
2022-10-18T10:48:40.180Z,8.55
2022-10-18T10:51:10.166Z,6.57
2022-10-18T10:53:59.178Z,7.00
2022-10-18T10:56:35.985Z,7.18
2022-10-18T11:02:20.721Z,5.03
2022-10-18T11:04:52.994Z,5.30
2022-10-18T11:07:25.926Z,5.55
2022-10-18T11:10:13.984Z,5.55
2022-10-18T11:12:44.836Z,6.35
2022-10-18T11:15:12.347Z,6.05
2022-10-18T11:20:41.120Z,5.90
2022-10-18T11:23:12.583Z,5.30
2022-10-18T11:26:07.461Z,5.38
2022-10-18T11:28:53.323Z,4.63
2022-10-18T11:31:44.757Z,5.40
2022-10-18T11:34:39.085Z,5.50
2022-10-18T11:37:46.556Z,5.07
2022-10-18T11:40:19.439Z,5.90
2022-10-18T11:43:16.974Z,5.43
2022-10-18T11:46:12.008Z,5.80
2022-10-18T11:48:38.922Z,4.32
2022-10-18T11:51:19.143Z,4.65
2022-10-18T11:53:57.973Z,5.38
2022-10-18T11:56:37.380Z,6.93
2022-10-18T11:59:28.567Z,10.70
2022-10-18T12:02:33.359Z,6.70
2022-10-18T12:05:24.276Z,5.78
2022-10-18T12:08:38.954Z,4.65
2022-10-18T12:11:34.032Z,6.00
2022-10-18T12:14:03.948Z,6.15
2022-10-18T12:16:51.089Z,6.22
2022-10-18T12:19:27.095Z,5.47
2022-10-18T12:21:58.215Z,4.30
2022-10-18T12:24:29.016Z,8.38
2022-10-18T12:27:00.705Z,7.55
2022-10-18T12:29:44.378Z,8.18
2022-10-18T12:32:16.719Z,7.18
2022-10-18T12:34:48.464Z,4.35
2022-10-18T12:37:42.658Z,4.60
2022-10-18T12:40:25.990Z,4.18
2022-10-18T12:42:53.870Z,3.85
2022-10-18T12:45:31.076Z,5.68
2022-10-18T12:48:04.759Z,9.60
2022-10-18T12:50:38.390Z,9.95
2022-10-18T12:53:12.390Z,10.85
2022-10-18T12:58:13.791Z,8.77
2022-10-18T13:00:43.395Z,8.35
2022-10-18T13:03:13.133Z,9.88
2022-10-18T13:05:54.975Z,11.02
2022-10-18T13:08:28.376Z,10.68
2022-10-18T13:11:10.528Z,12.23
2022-10-18T13:13:51.162Z,8.05
2022-10-18T13:16:20.875Z,5.70
2022-10-18T13:18:50.499Z,5.78
2022-10-18T13:21:23.294Z,9.20
2022-10-18T13:23:59.897Z,9.60
2022-10-18T13:29:22.660Z,3.80
2022-10-18T13:32:18.557Z,4.57
2022-10-18T13:34:45.735Z,9.95
2022-10-18T13:37:12.594Z,11.93
2022-10-18T13:39:40.262Z,7.53
2022-10-18T13:42:16.303Z,6.72
2022-10-18T13:44:44.828Z,3.45
2022-10-18T13:47:32.944Z,4.07
2022-10-18T13:50:06.088Z,5.80
2022-10-18T13:52:50.342Z,3.70
2022-10-18T13:55:41.468Z,3.85
2022-10-18T13:58:24.960Z,4.22
2022-10-18T14:01:00.685Z,6.07
2022-10-18T14:03:58.031Z,10.48
2022-10-18T14:06:29.116Z,4.95
2022-10-18T14:09:06.127Z,7.75
2022-10-18T14:11:46.881Z,4.45
2022-10-18T14:14:36.670Z,3.72
2022-10-18T14:17:29.790Z,5.72
2022-10-18T14:20:27.359Z,5.15
2022-10-18T14:23:20.065Z,5.05
2022-10-18T14:25:47.797Z,6.78
2022-10-18T14:28:21.690Z,4.93
2022-10-18T14:30:57.789Z,4.80
2022-10-18T14:33:58.051Z,5.07
2022-10-18T14:36:36.049Z,4.63
2022-10-18T14:39:05.822Z,7.13
2022-10-18T14:41:41.533Z,5.88
2022-10-18T14:44:11.753Z,5.40
2022-10-18T14:46:48.764Z,5.00
2022-10-18T14:49:17.523Z,5.38
2022-10-18T14:51:46.884Z,4.85
2022-10-18T14:54:37.287Z,5.47
2022-10-18T14:57:05.976Z,8.55
2022-10-18T14:59:41.956Z,3.83
2022-10-18T15:02:17.716Z,4.45
2022-10-18T15:04:47.139Z,5.40
2022-10-18T15:07:17.204Z,5.40
2022-10-18T15:09:45.593Z,4.75
2022-10-18T15:12:16.116Z,4.93
2022-10-18T15:14:44.263Z,4.50
2022-10-18T15:17:20.591Z,6.00
2022-10-18T15:20:06.201Z,5.25
2022-10-18T15:22:34.029Z,5.72
2022-10-18T15:25:17.012Z,8.45
2022-10-18T15:27:50.310Z,7.70
2022-10-18T15:30:29.761Z,9.65
2022-10-18T15:32:59.574Z,9.27
2022-10-18T15:35:30.304Z,8.27
2022-10-18T15:38:02.597Z,9.85
2022-10-18T15:40:37.131Z,9.02
2022-10-18T15:43:24.362Z,7.18
2022-10-18T15:46:07.186Z,6.90
2022-10-18T15:48:41.450Z,16.70
2022-10-18T15:51:22.973Z,10.18
2022-10-18T15:53:53.867Z,6.57
2022-10-18T15:56:41.429Z,8.70
2022-10-18T15:59:26.433Z,11.02
2022-10-18T16:01:54.637Z,8.57
2022-10-18T16:04:31.142Z,8.32
2022-10-18T16:09:28.287Z,14.57
2022-10-18T16:11:57.481Z,34.95
2022-10-18T16:14:26.952Z,30.80
2022-10-18T16:17:01.804Z,38.28
2022-10-18T16:19:29.342Z,33.22
2022-10-18T16:21:56.338Z,30.23
2022-10-18T16:24:23.999Z,20.55
2022-10-18T16:26:51.422Z,21.58
2022-10-18T16:29:24.379Z,19.73
2022-10-18T16:31:53.593Z,17.17
2022-10-18T16:34:20.567Z,12.93
2022-10-18T16:36:47.508Z,15.27
2022-10-18T16:39:17.238Z,24.42
2022-10-18T16:41:45.149Z,26.75
2022-10-18T16:44:12.208Z,21.33
2022-10-18T16:46:40.012Z,54.10
2022-10-18T16:49:10.770Z,39.25
2022-10-18T16:51:37.868Z,22.23
2022-10-18T16:54:05.561Z,19.90
2022-10-18T16:56:36.949Z,22.65
2022-10-18T16:59:04.080Z,23.15
2022-10-18T17:01:31.191Z,33.95
2022-10-18T17:03:58.206Z,35.97
2022-10-18T17:06:30.750Z,30.77
2022-10-18T17:08:58.517Z,23.70
2022-10-18T17:11:28.504Z,23.48
2022-10-18T17:13:56.103Z,20.50
2022-10-18T17:16:24.724Z,17.80
2022-10-18T17:18:52.153Z,18.30
2022-10-18T17:21:19.589Z,15.38
2022-10-18T17:23:47.922Z,15.07
2022-10-18T17:26:28.264Z,14.55
2022-10-18T17:29:02.085Z,14.93
2022-10-18T17:31:30.367Z,17.98
2022-10-18T17:33:58.802Z,11.02
2022-10-18T17:36:26.965Z,11.23
2022-10-18T17:38:55.194Z,9.60
2022-10-18T17:41:22.249Z,10.60
2022-10-18T17:43:49.746Z,9.90
2022-10-18T17:46:18.248Z,7.22
2022-10-18T17:48:45.929Z,7.35
2022-10-18T17:51:16.561Z,6.25
2022-10-18T17:53:46.160Z,7.10
2022-10-18T17:56:14.375Z,6.53
2022-10-18T17:58:47.202Z,6.28
2022-10-18T18:01:23.321Z,6.75
2022-10-18T18:03:55.670Z,6.65
2022-10-18T18:06:31.342Z,5.47
2022-10-18T18:09:05.143Z,6.78
2022-10-18T18:11:33.025Z,8.07
2022-10-18T18:14:00.622Z,7.25
2022-10-18T18:16:29.378Z,8.32
2022-10-18T18:18:58.514Z,7.80
2022-10-18T18:21:26.969Z,9.80
2022-10-18T18:23:54.278Z,10.80
2022-10-18T18:26:22.001Z,10.40
2022-10-18T18:28:49.719Z,10.02
2022-10-18T18:31:23.720Z,8.50
2022-10-18T18:33:52.843Z,9.38
2022-10-18T18:36:21.193Z,9.77
2022-10-18T18:38:48.757Z,9.23
2022-10-18T18:41:20.590Z,8.10
2022-10-18T18:44:01.407Z,8.68
2022-10-18T18:46:33.137Z,9.35
2022-10-18T18:49:00.158Z,12.55
2022-10-18T18:51:27.295Z,12.50
2022-10-18T18:53:54.435Z,11.57
2022-10-18T18:56:23.902Z,13.27
2022-10-18T18:58:52.529Z,12.60
2022-10-18T19:01:21.996Z,14.73
2022-10-18T19:03:51.785Z,13.27
2022-10-18T19:06:21.642Z,13.32
2022-10-18T19:08:49.871Z,13.23
2022-10-18T19:11:19.926Z,13.07
2022-10-18T19:13:47.857Z,12.70
2022-10-18T19:16:20.057Z,11.95
2022-10-18T19:19:13.591Z,12.93
2022-10-18T19:21:43.030Z,11.50
2022-10-18T19:24:10.056Z,11.13
2022-10-18T19:26:39.683Z,12.02
2022-10-18T19:29:15.798Z,15.05
2022-10-18T19:31:43.532Z,15.70
2022-10-18T19:34:12.662Z,17.20
2022-10-18T19:36:41.712Z,17.80
2022-10-18T19:39:12.022Z,16.90
2022-10-18T19:41:39.191Z,16.20
2022-10-18T19:44:06.459Z,15.18
2022-10-18T19:46:33.434Z,15.52
2022-10-18T19:49:00.379Z,14.85
2022-10-18T19:51:28.531Z,15.55
2022-10-18T19:53:57.299Z,12.95
2022-10-18T19:56:26.781Z,12.20
2022-10-18T19:58:55.796Z,10.82
2022-10-18T20:01:24.536Z,11.30
2022-10-18T20:03:51.569Z,10.50
2022-10-18T20:06:18.696Z,10.32
2022-10-18T20:08:45.771Z,10.70
2022-10-18T20:11:15.693Z,10.07
2022-10-18T20:13:42.786Z,9.38
2022-10-18T20:16:11.851Z,9.85
2022-10-18T20:18:39.012Z,8.73
2022-10-18T20:21:07.504Z,10.80
2022-10-18T20:23:39.655Z,10.32
2022-10-18T20:26:17.973Z,10.15
2022-10-18T20:28:58.241Z,9.20
2022-10-18T20:31:30.983Z,11.77
2022-10-18T20:34:00.249Z,8.90
2022-10-18T20:36:29.610Z,9.50
2022-10-18T20:38:56.913Z,10.93
2022-10-18T20:41:26.102Z,9.95
2022-10-18T20:43:55.295Z,10.10
2022-10-18T20:46:22.865Z,13.40
2022-10-18T20:48:51.637Z,14.32
2022-10-18T20:51:19.137Z,15.60
2022-10-18T20:53:46.505Z,20.17
2022-10-18T20:56:21.733Z,21.40
2022-10-18T20:58:51.513Z,22.83
2022-10-18T21:01:21.332Z,22.50
2022-10-18T21:03:50.365Z,22.58
2022-10-18T21:06:22.552Z,20.13
2022-10-18T21:08:57.587Z,20.63
2022-10-18T21:11:25.233Z,20.77
2022-10-18T21:13:53.811Z,21.85
2022-10-18T21:16:21.141Z,22.50
2022-10-18T21:18:48.824Z,21.33
2022-10-18T21:21:25.152Z,21.65
2022-10-18T21:23:52.655Z,23.33
2022-10-18T21:26:25.056Z,22.73
2022-10-18T21:28:53.771Z,23.17
2022-10-18T21:31:26.200Z,23.25
2022-10-18T21:34:04.906Z,22.05
2022-10-18T21:36:33.965Z,23.65
2022-10-18T21:39:01.946Z,23.17
2022-10-18T21:41:28.880Z,23.38
2022-10-18T21:43:55.861Z,24.70
2022-10-18T21:46:24.498Z,23.40
2022-10-18T21:48:52.870Z,22.00
2022-10-18T21:51:21.979Z,21.75
2022-10-18T21:53:51.646Z,28.88
2022-10-18T21:56:25.348Z,29.23
2022-10-18T21:58:52.407Z,27.15
2022-10-18T22:01:25.060Z,25.67
2022-10-18T22:03:53.709Z,24.40
2022-10-18T22:06:24.796Z,20.05
2022-10-18T22:09:03.435Z,16.55
2022-10-18T22:11:34.019Z,19.55
2022-10-18T22:14:01.064Z,18.15
2022-10-18T22:16:28.161Z,18.50
2022-10-18T22:19:00.154Z,18.30
2022-10-18T22:21:28.657Z,19.67
2022-10-18T22:23:57.364Z,20.15
2022-10-18T22:26:29.646Z,24.83
2022-10-18T22:28:59.020Z,25.42
2022-10-18T22:31:28.943Z,28.52
2022-10-18T22:33:58.884Z,30.27
2022-10-18T22:36:27.157Z,19.63
2022-10-18T22:38:54.838Z,23.25
2022-10-18T22:41:21.831Z,19.60
2022-10-18T22:43:51.389Z,19.00
2022-10-18T22:46:19.141Z,18.70
2022-10-18T22:48:46.358Z,17.35
2022-10-18T22:51:13.350Z,16.58
2022-10-18T22:53:41.313Z,17.58
2022-10-18T22:56:11.756Z,17.38
2022-10-18T22:58:38.848Z,15.25
2022-10-18T23:01:09.764Z,19.67
2022-10-18T23:03:37.625Z,19.40
2022-10-18T23:06:06.415Z,20.80
2022-10-18T23:08:33.511Z,19.73
2022-10-18T23:11:00.711Z,20.23
2022-10-18T23:13:28.068Z,19.95
2022-10-18T23:16:04.403Z,21.05
2022-10-18T23:18:33.170Z,23.95
2022-10-18T23:21:10.567Z,19.90
2022-10-18T23:23:39.795Z,21.08
2022-10-18T23:26:14.413Z,19.05
2022-10-18T23:28:44.402Z,24.58
2022-10-18T23:31:13.195Z,27.70
2022-10-18T23:33:41.111Z,23.45
2022-10-18T23:36:08.862Z,21.60
2022-10-18T23:38:37.761Z,20.77
2022-10-18T23:41:10.902Z,19.05
2022-10-18T23:43:38.366Z,17.45
2022-10-18T23:46:07.794Z,15.60
2022-10-18T23:48:35.575Z,14.75
2022-10-18T23:51:03.542Z,16.15
2022-10-18T23:53:31.293Z,16.90
2022-10-18T23:56:03.847Z,15.43
2022-10-18T23:58:32.142Z,15.23
